sensor_id;sensor_type;location;lat;lon;timestamp;P1;durP1;ratioP1;P2;durP2;ratioP2
77449;SDS011;66536;53.150;18.172;2023-07-08T00:00:40;7.20;;;2.70;;
77449;SDS011;66536;53.150;18.172;2023-07-08T00:03:26;3.90;;;2.30;;
77449;SDS011;66536;53.150;18.172;2023-07-08T00:05:53;3.30;;;2.50;;
77449;SDS011;66536;53.150;18.172;2023-07-08T00:08:21;3.20;;;2.50;;
77449;SDS011;66536;53.150;18.172;2023-07-08T00:10:47;3.30;;;2.40;;
77449;SDS011;66536;53.150;18.172;2023-07-08T00:13:13;4.10;;;2.50;;
77449;SDS011;66536;53.150;18.172;2023-07-08T00:15:39;4.80;;;2.90;;
77449;SDS011;66536;53.150;18.172;2023-07-08T00:18:14;5.10;;;2.70;;
77449;SDS011;66536;53.150;18.172;2023-07-08T00:20:43;5.80;;;2.60;;
77449;SDS011;66536;53.150;18.172;2023-07-08T00:23:12;4.40;;;2.60;;
77449;SDS011;66536;53.150;18.172;2023-07-08T00:25:39;7.30;;;2.80;;
77449;SDS011;66536;53.150;18.172;2023-07-08T00:28:09;7.50;;;2.50;;
77449;SDS011;66536;53.150;18.172;2023-07-08T00:30:37;3.50;;;2.50;;
77449;SDS011;66536;53.150;18.172;2023-07-08T00:33:05;3.90;;;2.60;;
77449;SDS011;66536;53.150;18.172;2023-07-08T00:35:34;4.30;;;2.90;;
77449;SDS011;66536;53.150;18.172;2023-07-08T00:38:02;3.80;;;2.80;;
77449;SDS011;66536;53.150;18.172;2023-07-08T00:40:58;9.90;;;3.20;;
77449;SDS011;66536;53.150;18.172;2023-07-08T00:43:50;3.70;;;2.70;;
77449;SDS011;66536;53.150;18.172;2023-07-08T00:49:23;5.70;;;3.30;;
77449;SDS011;66536;53.150;18.172;2023-07-08T00:54:48;9.90;;;4.50;;
77449;SDS011;66536;53.150;18.172;2023-07-08T00:57:15;7.10;;;4.00;;
77449;SDS011;66536;53.150;18.172;2023-07-08T00:59:44;5.50;;;3.20;;
77449;SDS011;66536;53.150;18.172;2023-07-08T01:02:15;3.40;;;2.50;;
77449;SDS011;66536;53.150;18.172;2023-07-08T01:04:54;5.50;;;2.70;;
77449;SDS011;66536;53.150;18.172;2023-07-08T01:07:26;6.00;;;2.90;;
77449;SDS011;66536;53.150;18.172;2023-07-08T01:09:56;3.30;;;2.40;;
77449;SDS011;66536;53.150;18.172;2023-07-08T01:12:29;5.00;;;2.30;;
77449;SDS011;66536;53.150;18.172;2023-07-08T01:15:01;4.90;;;2.60;;
77449;SDS011;66536;53.150;18.172;2023-07-08T01:17:28;4.50;;;2.60;;
77449;SDS011;66536;53.150;18.172;2023-07-08T01:19:59;4.70;;;2.40;;
77449;SDS011;66536;53.150;18.172;2023-07-08T01:22:30;6.40;;;2.70;;
77449;SDS011;66536;53.150;18.172;2023-07-08T01:24:58;4.30;;;2.70;;
77449;SDS011;66536;53.150;18.172;2023-07-08T01:27:31;4.30;;;2.90;;
77449;SDS011;66536;53.150;18.172;2023-07-08T01:30:00;3.90;;;2.20;;
77449;SDS011;66536;53.150;18.172;2023-07-08T01:32:28;6.10;;;3.00;;
77449;SDS011;66536;53.150;18.172;2023-07-08T01:34:55;3.70;;;2.70;;
77449;SDS011;66536;53.150;18.172;2023-07-08T01:37:28;4.80;;;3.00;;
77449;SDS011;66536;53.150;18.172;2023-07-08T01:42:41;5.20;;;3.40;;
77449;SDS011;66536;53.150;18.172;2023-07-08T01:45:16;4.70;;;3.00;;
77449;SDS011;66536;53.150;18.172;2023-07-08T01:47:46;5.20;;;3.30;;
77449;SDS011;66536;53.150;18.172;2023-07-08T01:50:16;4.30;;;3.10;;
77449;SDS011;66536;53.150;18.172;2023-07-08T01:52:42;6.40;;;3.40;;
77449;SDS011;66536;53.150;18.172;2023-07-08T01:55:08;4.10;;;3.40;;
77449;SDS011;66536;53.150;18.172;2023-07-08T01:57:34;4.40;;;3.30;;
77449;SDS011;66536;53.150;18.172;2023-07-08T02:00:00;3.60;;;3.30;;
77449;SDS011;66536;53.150;18.172;2023-07-08T02:02:26;5.30;;;3.80;;
77449;SDS011;66536;53.150;18.172;2023-07-08T02:04:52;6.40;;;3.50;;
77449;SDS011;66536;53.150;18.172;2023-07-08T02:07:18;5.70;;;3.50;;
77449;SDS011;66536;53.150;18.172;2023-07-08T02:09:45;3.80;;;3.20;;
77449;SDS011;66536;53.150;18.172;2023-07-08T02:12:11;5.40;;;3.10;;
77449;SDS011;66536;53.150;18.172;2023-07-08T02:14:38;9.20;;;3.50;;
77449;SDS011;66536;53.150;18.172;2023-07-08T02:17:04;5.60;;;3.70;;
77449;SDS011;66536;53.150;18.172;2023-07-08T02:19:31;4.60;;;3.40;;
77449;SDS011;66536;53.150;18.172;2023-07-08T02:21:57;5.70;;;3.40;;
77449;SDS011;66536;53.150;18.172;2023-07-08T02:24:23;6.20;;;3.40;;
77449;SDS011;66536;53.150;18.172;2023-07-08T02:26:49;4.50;;;3.50;;
77449;SDS011;66536;53.150;18.172;2023-07-08T02:29:15;5.70;;;3.50;;
77449;SDS011;66536;53.150;18.172;2023-07-08T02:31:41;6.60;;;3.40;;
77449;SDS011;66536;53.150;18.172;2023-07-08T02:34:07;6.40;;;3.80;;
77449;SDS011;66536;53.150;18.172;2023-07-08T02:36:33;6.30;;;3.50;;
77449;SDS011;66536;53.150;18.172;2023-07-08T02:39:00;5.40;;;4.10;;
77449;SDS011;66536;53.150;18.172;2023-07-08T02:41:26;5.50;;;4.10;;
77449;SDS011;66536;53.150;18.172;2023-07-08T02:43:52;6.50;;;4.00;;
77449;SDS011;66536;53.150;18.172;2023-07-08T02:46:17;6.30;;;4.40;;
77449;SDS011;66536;53.150;18.172;2023-07-08T02:48:43;4.90;;;3.70;;
77449;SDS011;66536;53.150;18.172;2023-07-08T02:51:11;5.10;;;4.00;;
77449;SDS011;66536;53.150;18.172;2023-07-08T02:53:37;4.90;;;3.80;;
77449;SDS011;66536;53.150;18.172;2023-07-08T02:56:03;7.20;;;3.90;;
77449;SDS011;66536;53.150;18.172;2023-07-08T02:58:29;7.10;;;3.80;;
77449;SDS011;66536;53.150;18.172;2023-07-08T03:00:56;7.50;;;4.40;;
77449;SDS011;66536;53.150;18.172;2023-07-08T03:03:27;8.30;;;4.30;;
77449;SDS011;66536;53.150;18.172;2023-07-08T03:05:56;9.10;;;4.00;;
77449;SDS011;66536;53.150;18.172;2023-07-08T03:08:22;6.80;;;4.30;;
77449;SDS011;66536;53.150;18.172;2023-07-08T03:10:53;7.90;;;4.50;;
77449;SDS011;66536;53.150;18.172;2023-07-08T03:13:22;7.50;;;4.20;;
77449;SDS011;66536;53.150;18.172;2023-07-08T03:15:48;4.80;;;3.80;;
77449;SDS011;66536;53.150;18.172;2023-07-08T03:18:15;5.70;;;4.70;;
77449;SDS011;66536;53.150;18.172;2023-07-08T03:20:41;8.00;;;4.30;;
77449;SDS011;66536;53.150;18.172;2023-07-08T03:23:11;5.50;;;4.40;;
77449;SDS011;66536;53.150;18.172;2023-07-08T03:25:38;6.60;;;4.80;;
77449;SDS011;66536;53.150;18.172;2023-07-08T03:28:04;8.70;;;4.90;;
77449;SDS011;66536;53.150;18.172;2023-07-08T03:30:33;10.90;;;5.30;;
77449;SDS011;66536;53.150;18.172;2023-07-08T03:33:00;9.30;;;4.50;;
77449;SDS011;66536;53.150;18.172;2023-07-08T03:35:26;6.60;;;4.30;;
77449;SDS011;66536;53.150;18.172;2023-07-08T03:37:52;8.70;;;5.10;;
77449;SDS011;66536;53.150;18.172;2023-07-08T03:40:18;14.10;;;5.10;;
77449;SDS011;66536;53.150;18.172;2023-07-08T03:42:44;9.60;;;5.10;;
77449;SDS011;66536;53.150;18.172;2023-07-08T03:45:11;6.30;;;4.70;;
77449;SDS011;66536;53.150;18.172;2023-07-08T03:47:37;8.80;;;4.50;;
77449;SDS011;66536;53.150;18.172;2023-07-08T03:50:03;6.30;;;4.30;;
77449;SDS011;66536;53.150;18.172;2023-07-08T03:52:30;6.80;;;4.40;;
77449;SDS011;66536;53.150;18.172;2023-07-08T03:54:56;7.80;;;4.10;;
77449;SDS011;66536;53.150;18.172;2023-07-08T03:57:22;5.30;;;4.40;;
77449;SDS011;66536;53.150;18.172;2023-07-08T03:59:48;10.70;;;4.50;;
77449;SDS011;66536;53.150;18.172;2023-07-08T04:02:15;9.80;;;4.70;;
77449;SDS011;66536;53.150;18.172;2023-07-08T04:04:41;5.30;;;4.10;;
77449;SDS011;66536;53.150;18.172;2023-07-08T04:07:08;4.70;;;4.00;;
77449;SDS011;66536;53.150;18.172;2023-07-08T04:09:34;7.40;;;4.50;;
77449;SDS011;66536;53.150;18.172;2023-07-08T04:12:00;5.50;;;4.20;;
77449;SDS011;66536;53.150;18.172;2023-07-08T04:14:26;8.80;;;4.20;;
77449;SDS011;66536;53.150;18.172;2023-07-08T04:16:54;8.70;;;4.30;;
77449;SDS011;66536;53.150;18.172;2023-07-08T04:19:23;9.90;;;6.10;;
77449;SDS011;66536;53.150;18.172;2023-07-08T04:21:49;5.90;;;5.00;;
77449;SDS011;66536;53.150;18.172;2023-07-08T04:24:16;6.30;;;4.70;;
77449;SDS011;66536;53.150;18.172;2023-07-08T04:26:44;5.90;;;4.20;;
77449;SDS011;66536;53.150;18.172;2023-07-08T04:29:13;5.60;;;4.30;;
77449;SDS011;66536;53.150;18.172;2023-07-08T04:31:41;8.20;;;4.40;;
77449;SDS011;66536;53.150;18.172;2023-07-08T04:34:07;5.80;;;4.40;;
77449;SDS011;66536;53.150;18.172;2023-07-08T04:36:34;6.00;;;4.40;;
77449;SDS011;66536;53.150;18.172;2023-07-08T04:39:01;10.90;;;5.10;;
77449;SDS011;66536;53.150;18.172;2023-07-08T04:41:28;7.00;;;4.70;;
77449;SDS011;66536;53.150;18.172;2023-07-08T04:43:54;7.10;;;4.50;;
77449;SDS011;66536;53.150;18.172;2023-07-08T04:46:33;5.90;;;4.50;;
77449;SDS011;66536;53.150;18.172;2023-07-08T04:49:04;6.80;;;4.80;;
77449;SDS011;66536;53.150;18.172;2023-07-08T04:51:32;10.40;;;5.10;;
77449;SDS011;66536;53.150;18.172;2023-07-08T04:53:58;6.60;;;5.20;;
77449;SDS011;66536;53.150;18.172;2023-07-08T04:56:25;6.90;;;5.20;;
77449;SDS011;66536;53.150;18.172;2023-07-08T04:59:01;10.90;;;5.10;;
77449;SDS011;66536;53.150;18.172;2023-07-08T05:01:27;6.50;;;5.10;;
77449;SDS011;66536;53.150;18.172;2023-07-08T05:03:53;5.80;;;5.10;;
77449;SDS011;66536;53.150;18.172;2023-07-08T05:06:19;6.30;;;4.80;;
77449;SDS011;66536;53.150;18.172;2023-07-08T05:08:45;10.30;;;5.40;;
77449;SDS011;66536;53.150;18.172;2023-07-08T05:11:11;7.30;;;5.10;;
77449;SDS011;66536;53.150;18.172;2023-07-08T05:13:37;6.90;;;5.30;;
77449;SDS011;66536;53.150;18.172;2023-07-08T05:16:03;8.70;;;5.10;;
77449;SDS011;66536;53.150;18.172;2023-07-08T05:18:30;6.90;;;5.00;;
77449;SDS011;66536;53.150;18.172;2023-07-08T05:20:56;10.30;;;5.30;;
77449;SDS011;66536;53.150;18.172;2023-07-08T05:23:21;7.40;;;5.10;;
77449;SDS011;66536;53.150;18.172;2023-07-08T05:25:48;9.10;;;5.70;;
77449;SDS011;66536;53.150;18.172;2023-07-08T05:28:14;11.80;;;5.70;;
77449;SDS011;66536;53.150;18.172;2023-07-08T05:30:41;7.20;;;5.30;;
77449;SDS011;66536;53.150;18.172;2023-07-08T05:33:08;10.80;;;5.40;;
77449;SDS011;66536;53.150;18.172;2023-07-08T05:35:35;6.30;;;5.30;;
77449;SDS011;66536;53.150;18.172;2023-07-08T05:38:01;6.20;;;5.30;;
77449;SDS011;66536;53.150;18.172;2023-07-08T05:40:27;8.60;;;5.50;;
77449;SDS011;66536;53.150;18.172;2023-07-08T05:42:53;7.30;;;5.60;;
77449;SDS011;66536;53.150;18.172;2023-07-08T05:45:19;7.00;;;5.80;;
77449;SDS011;66536;53.150;18.172;2023-07-08T05:47:45;7.50;;;5.70;;
77449;SDS011;66536;53.150;18.172;2023-07-08T05:50:11;7.60;;;5.90;;
77449;SDS011;66536;53.150;18.172;2023-07-08T05:52:37;9.20;;;6.00;;
77449;SDS011;66536;53.150;18.172;2023-07-08T05:55:03;10.50;;;6.20;;
77449;SDS011;66536;53.150;18.172;2023-07-08T05:57:29;9.20;;;6.20;;
77449;SDS011;66536;53.150;18.172;2023-07-08T05:59:55;8.40;;;5.90;;
77449;SDS011;66536;53.150;18.172;2023-07-08T06:02:21;11.40;;;6.20;;
77449;SDS011;66536;53.150;18.172;2023-07-08T06:04:51;9.00;;;6.20;;
77449;SDS011;66536;53.150;18.172;2023-07-08T06:07:17;8.80;;;6.10;;
77449;SDS011;66536;53.150;18.172;2023-07-08T06:09:43;6.90;;;5.90;;
77449;SDS011;66536;53.150;18.172;2023-07-08T06:12:10;7.90;;;5.80;;
77449;SDS011;66536;53.150;18.172;2023-07-08T06:14:36;10.00;;;5.30;;
77449;SDS011;66536;53.150;18.172;2023-07-08T06:17:03;10.60;;;6.20;;
77449;SDS011;66536;53.150;18.172;2023-07-08T06:19:29;8.00;;;5.60;;
77449;SDS011;66536;53.150;18.172;2023-07-08T06:21:56;7.50;;;5.70;;
77449;SDS011;66536;53.150;18.172;2023-07-08T06:24:23;8.30;;;5.30;;
77449;SDS011;66536;53.150;18.172;2023-07-08T06:26:49;10.10;;;5.30;;
77449;SDS011;66536;53.150;18.172;2023-07-08T06:29:15;12.10;;;6.00;;
77449;SDS011;66536;53.150;18.172;2023-07-08T06:31:41;9.80;;;5.30;;
77449;SDS011;66536;53.150;18.172;2023-07-08T06:34:07;8.80;;;5.40;;
77449;SDS011;66536;53.150;18.172;2023-07-08T06:36:33;10.10;;;5.50;;
77449;SDS011;66536;53.150;18.172;2023-07-08T06:38:59;6.70;;;5.00;;
77449;SDS011;66536;53.150;18.172;2023-07-08T06:41:25;8.60;;;5.10;;
77449;SDS011;66536;53.150;18.172;2023-07-08T06:43:51;9.10;;;4.80;;
77449;SDS011;66536;53.150;18.172;2023-07-08T06:46:20;7.60;;;5.20;;
77449;SDS011;66536;53.150;18.172;2023-07-08T06:48:47;7.70;;;5.40;;
77449;SDS011;66536;53.150;18.172;2023-07-08T06:51:13;8.30;;;4.90;;
77449;SDS011;66536;53.150;18.172;2023-07-08T06:53:39;12.60;;;5.10;;
77449;SDS011;66536;53.150;18.172;2023-07-08T06:56:05;12.70;;;5.00;;
77449;SDS011;66536;53.150;18.172;2023-07-08T06:58:31;9.80;;;4.70;;
77449;SDS011;66536;53.150;18.172;2023-07-08T07:00:57;8.50;;;4.90;;
77449;SDS011;66536;53.150;18.172;2023-07-08T07:03:23;7.80;;;4.60;;
77449;SDS011;66536;53.150;18.172;2023-07-08T07:05:49;8.30;;;4.70;;
77449;SDS011;66536;53.150;18.172;2023-07-08T07:08:15;9.00;;;5.00;;
77449;SDS011;66536;53.150;18.172;2023-07-08T07:10:41;10.50;;;4.40;;
77449;SDS011;66536;53.150;18.172;2023-07-08T07:13:07;6.90;;;4.20;;
77449;SDS011;66536;53.150;18.172;2023-07-08T07:15:33;10.20;;;4.80;;
77449;SDS011;66536;53.150;18.172;2023-07-08T07:18:00;6.90;;;4.10;;
77449;SDS011;66536;53.150;18.172;2023-07-08T07:20:26;8.40;;;4.00;;
77449;SDS011;66536;53.150;18.172;2023-07-08T07:22:52;6.20;;;3.40;;
77449;SDS011;66536;53.150;18.172;2023-07-08T07:25:19;5.30;;;4.20;;
77449;SDS011;66536;53.150;18.172;2023-07-08T07:27:46;9.00;;;3.30;;
77449;SDS011;66536;53.150;18.172;2023-07-08T07:30:12;5.90;;;3.40;;
77449;SDS011;66536;53.150;18.172;2023-07-08T07:32:41;4.70;;;2.90;;
77449;SDS011;66536;53.150;18.172;2023-07-08T07:35:09;5.70;;;2.50;;
77449;SDS011;66536;53.150;18.172;2023-07-08T07:37:39;2.90;;;2.30;;
77449;SDS011;66536;53.150;18.172;2023-07-08T07:40:07;4.50;;;2.60;;
77449;SDS011;66536;53.150;18.172;2023-07-08T07:42:38;5.20;;;2.70;;
77449;SDS011;66536;53.150;18.172;2023-07-08T07:45:06;6.90;;;2.50;;
77449;SDS011;66536;53.150;18.172;2023-07-08T07:47:32;3.70;;;2.70;;
77449;SDS011;66536;53.150;18.172;2023-07-08T07:49:59;4.20;;;2.90;;
77449;SDS011;66536;53.150;18.172;2023-07-08T07:52:25;3.90;;;2.20;;
77449;SDS011;66536;53.150;18.172;2023-07-08T07:54:51;7.50;;;2.40;;
77449;SDS011;66536;53.150;18.172;2023-07-08T07:57:17;12.90;;;2.70;;
77449;SDS011;66536;53.150;18.172;2023-07-08T07:59:43;5.00;;;2.60;;
77449;SDS011;66536;53.150;18.172;2023-07-08T08:02:09;2.70;;;2.40;;
77449;SDS011;66536;53.150;18.172;2023-07-08T08:04:37;4.10;;;2.50;;
77449;SDS011;66536;53.150;18.172;2023-07-08T08:07:03;7.40;;;2.40;;
77449;SDS011;66536;53.150;18.172;2023-07-08T08:09:30;3.70;;;2.50;;
77449;SDS011;66536;53.150;18.172;2023-07-08T08:11:56;3.10;;;2.50;;
77449;SDS011;66536;53.150;18.172;2023-07-08T08:14:22;5.80;;;2.60;;
77449;SDS011;66536;53.150;18.172;2023-07-08T08:16:48;2.80;;;2.50;;
77449;SDS011;66536;53.150;18.172;2023-07-08T08:19:14;8.40;;;3.10;;
77449;SDS011;66536;53.150;18.172;2023-07-08T08:21:40;5.90;;;2.80;;
77449;SDS011;66536;53.150;18.172;2023-07-08T08:24:06;6.10;;;2.80;;
77449;SDS011;66536;53.150;18.172;2023-07-08T08:26:32;3.50;;;2.70;;
77449;SDS011;66536;53.150;18.172;2023-07-08T08:28:58;8.80;;;3.00;;
77449;SDS011;66536;53.150;18.172;2023-07-08T08:31:24;3.30;;;2.40;;
77449;SDS011;66536;53.150;18.172;2023-07-08T08:33:51;4.30;;;2.70;;
77449;SDS011;66536;53.150;18.172;2023-07-08T08:36:18;5.90;;;3.00;;
77449;SDS011;66536;53.150;18.172;2023-07-08T08:38:44;4.70;;;2.60;;
77449;SDS011;66536;53.150;18.172;2023-07-08T08:41:11;3.70;;;2.30;;
77449;SDS011;66536;53.150;18.172;2023-07-08T08:43:41;3.50;;;2.70;;
77449;SDS011;66536;53.150;18.172;2023-07-08T08:46:12;4.50;;;2.80;;
77449;SDS011;66536;53.150;18.172;2023-07-08T08:48:59;10.30;;;3.10;;
77449;SDS011;66536;53.150;18.172;2023-07-08T08:51:31;3.70;;;2.80;;
77449;SDS011;66536;53.150;18.172;2023-07-08T08:53:58;4.50;;;2.90;;
77449;SDS011;66536;53.150;18.172;2023-07-08T08:56:29;5.60;;;2.30;;
77449;SDS011;66536;53.150;18.172;2023-07-08T09:01:50;3.60;;;2.50;;
77449;SDS011;66536;53.150;18.172;2023-07-08T09:04:19;4.00;;;2.90;;
77449;SDS011;66536;53.150;18.172;2023-07-08T09:06:49;2.80;;;2.20;;
77449;SDS011;66536;53.150;18.172;2023-07-08T09:09:20;4.50;;;2.70;;
77449;SDS011;66536;53.150;18.172;2023-07-08T09:11:56;6.10;;;2.60;;
77449;SDS011;66536;53.150;18.172;2023-07-08T09:14:29;2.90;;;2.70;;
77449;SDS011;66536;53.150;18.172;2023-07-08T09:17:00;5.90;;;2.70;;
77449;SDS011;66536;53.150;18.172;2023-07-08T09:25:34;3.60;;;2.70;;
77449;SDS011;66536;53.150;18.172;2023-07-08T09:28:04;9.80;;;2.50;;
77449;SDS011;66536;53.150;18.172;2023-07-08T09:30:30;6.90;;;2.70;;
77449;SDS011;66536;53.150;18.172;2023-07-08T09:32:56;3.20;;;2.30;;
77449;SDS011;66536;53.150;18.172;2023-07-08T09:35:25;3.90;;;2.80;;
77449;SDS011;66536;53.150;18.172;2023-07-08T09:37:53;4.60;;;2.30;;
77449;SDS011;66536;53.150;18.172;2023-07-08T09:40:22;5.40;;;2.60;;
77449;SDS011;66536;53.150;18.172;2023-07-08T09:42:59;3.40;;;2.40;;
77449;SDS011;66536;53.150;18.172;2023-07-08T09:45:29;2.40;;;2.20;;
77449;SDS011;66536;53.150;18.172;2023-07-08T09:48:13;5.10;;;2.10;;
77449;SDS011;66536;53.150;18.172;2023-07-08T09:50:43;4.30;;;3.00;;
77449;SDS011;66536;53.150;18.172;2023-07-08T09:53:10;6.60;;;2.60;;
77449;SDS011;66536;53.150;18.172;2023-07-08T09:55:39;5.60;;;2.90;;
77449;SDS011;66536;53.150;18.172;2023-07-08T09:58:05;5.30;;;2.30;;
77449;SDS011;66536;53.150;18.172;2023-07-08T10:00:40;4.80;;;2.40;;
77449;SDS011;66536;53.150;18.172;2023-07-08T10:03:11;2.80;;;2.40;;
77449;SDS011;66536;53.150;18.172;2023-07-08T10:05:43;2.80;;;2.50;;
77449;SDS011;66536;53.150;18.172;2023-07-08T10:08:14;2.90;;;2.40;;
77449;SDS011;66536;53.150;18.172;2023-07-08T10:10:42;2.50;;;2.30;;
77449;SDS011;66536;53.150;18.172;2023-07-08T10:16:06;3.90;;;2.70;;
77449;SDS011;66536;53.150;18.172;2023-07-08T10:18:44;3.90;;;2.80;;
77449;SDS011;66536;53.150;18.172;2023-07-08T10:21:14;3.80;;;2.40;;
77449;SDS011;66536;53.150;18.172;2023-07-08T10:26:39;11.90;;;3.00;;
77449;SDS011;66536;53.150;18.172;2023-07-08T10:29:26;5.90;;;2.90;;
77449;SDS011;66536;53.150;18.172;2023-07-08T10:32:12;4.30;;;2.40;;
77449;SDS011;66536;53.150;18.172;2023-07-08T10:35:00;5.20;;;2.40;;
77449;SDS011;66536;53.150;18.172;2023-07-08T10:40:52;5.30;;;2.60;;
77449;SDS011;66536;53.150;18.172;2023-07-08T10:46:20;7.90;;;2.50;;
77449;SDS011;66536;53.150;18.172;2023-07-08T10:54:36;3.50;;;3.10;;
77449;SDS011;66536;53.150;18.172;2023-07-08T10:57:41;5.90;;;2.80;;
77449;SDS011;66536;53.150;18.172;2023-07-08T11:00:22;4.30;;;2.50;;
77449;SDS011;66536;53.150;18.172;2023-07-08T11:06:18;3.40;;;2.60;;
77449;SDS011;66536;53.150;18.172;2023-07-08T11:08:50;4.80;;;2.80;;
77449;SDS011;66536;53.150;18.172;2023-07-08T11:11:26;3.50;;;2.80;;
77449;SDS011;66536;53.150;18.172;2023-07-08T11:14:01;3.50;;;3.10;;
77449;SDS011;66536;53.150;18.172;2023-07-08T11:16:37;5.70;;;2.90;;
77449;SDS011;66536;53.150;18.172;2023-07-08T11:19:12;5.50;;;2.90;;
77449;SDS011;66536;53.150;18.172;2023-07-08T11:21:46;3.80;;;2.80;;
77449;SDS011;66536;53.150;18.172;2023-07-08T11:24:22;3.20;;;2.90;;
77449;SDS011;66536;53.150;18.172;2023-07-08T11:26:56;5.40;;;3.20;;
77449;SDS011;66536;53.150;18.172;2023-07-08T11:32:09;3.10;;;2.70;;
77449;SDS011;66536;53.150;18.172;2023-07-08T11:34:40;4.00;;;2.80;;
77449;SDS011;66536;53.150;18.172;2023-07-08T11:37:09;3.00;;;2.60;;
77449;SDS011;66536;53.150;18.172;2023-07-08T11:39:40;4.60;;;2.90;;
77449;SDS011;66536;53.150;18.172;2023-07-08T11:42:32;4.90;;;2.80;;
77449;SDS011;66536;53.150;18.172;2023-07-08T11:45:19;4.30;;;2.70;;
77449;SDS011;66536;53.150;18.172;2023-07-08T11:47:52;3.20;;;2.80;;
77449;SDS011;66536;53.150;18.172;2023-07-08T11:50:20;3.50;;;3.20;;
77449;SDS011;66536;53.150;18.172;2023-07-08T11:52:53;5.60;;;3.10;;
77449;SDS011;66536;53.150;18.172;2023-07-08T11:55:25;4.70;;;2.80;;
77449;SDS011;66536;53.150;18.172;2023-07-08T11:58:08;7.80;;;3.00;;
77449;SDS011;66536;53.150;18.172;2023-07-08T12:00:52;4.40;;;2.90;;
77449;SDS011;66536;53.150;18.172;2023-07-08T12:03:55;4.20;;;2.70;;
77449;SDS011;66536;53.150;18.172;2023-07-08T12:11:59;4.30;;;2.70;;
77449;SDS011;66536;53.150;18.172;2023-07-08T12:14:27;4.10;;;2.90;;
77449;SDS011;66536;53.150;18.172;2023-07-08T12:16:54;3.90;;;3.00;;
77449;SDS011;66536;53.150;18.172;2023-07-08T12:19:21;5.60;;;2.80;;
77449;SDS011;66536;53.150;18.172;2023-07-08T12:21:51;4.80;;;2.60;;
77449;SDS011;66536;53.150;18.172;2023-07-08T12:24:18;6.10;;;3.00;;
77449;SDS011;66536;53.150;18.172;2023-07-08T12:26:44;3.80;;;2.80;;
77449;SDS011;66536;53.150;18.172;2023-07-08T12:29:11;7.40;;;2.90;;
77449;SDS011;66536;53.150;18.172;2023-07-08T12:31:39;4.50;;;2.80;;
77449;SDS011;66536;53.150;18.172;2023-07-08T12:34:15;3.00;;;2.70;;
77449;SDS011;66536;53.150;18.172;2023-07-08T12:36:43;3.00;;;2.70;;
77449;SDS011;66536;53.150;18.172;2023-07-08T12:39:11;5.00;;;3.00;;
77449;SDS011;66536;53.150;18.172;2023-07-08T12:41:40;4.60;;;3.30;;
77449;SDS011;66536;53.150;18.172;2023-07-08T12:44:13;3.30;;;2.80;;
77449;SDS011;66536;53.150;18.172;2023-07-08T12:46:44;5.20;;;3.10;;
77449;SDS011;66536;53.150;18.172;2023-07-08T12:49:13;2.90;;;2.70;;
77449;SDS011;66536;53.150;18.172;2023-07-08T12:51:42;4.20;;;3.10;;
77449;SDS011;66536;53.150;18.172;2023-07-08T12:54:10;3.80;;;3.40;;
77449;SDS011;66536;53.150;18.172;2023-07-08T12:56:37;4.30;;;3.40;;
77449;SDS011;66536;53.150;18.172;2023-07-08T12:59:06;6.40;;;2.90;;
77449;SDS011;66536;53.150;18.172;2023-07-08T13:01:33;3.50;;;3.10;;
77449;SDS011;66536;53.150;18.172;2023-07-08T13:04:06;3.20;;;2.90;;
77449;SDS011;66536;53.150;18.172;2023-07-08T13:06:49;5.30;;;3.10;;
77449;SDS011;66536;53.150;18.172;2023-07-08T13:09:32;6.10;;;2.80;;
77449;SDS011;66536;53.150;18.172;2023-07-08T13:12:12;4.30;;;3.10;;
77449;SDS011;66536;53.150;18.172;2023-07-08T13:14:41;4.40;;;2.80;;
77449;SDS011;66536;53.150;18.172;2023-07-08T13:17:12;3.30;;;2.90;;
77449;SDS011;66536;53.150;18.172;2023-07-08T13:19:40;6.70;;;3.90;;
77449;SDS011;66536;53.150;18.172;2023-07-08T13:22:10;5.00;;;3.10;;
77449;SDS011;66536;53.150;18.172;2023-07-08T13:24:40;5.10;;;3.30;;
77449;SDS011;66536;53.150;18.172;2023-07-08T13:27:07;4.20;;;3.00;;
77449;SDS011;66536;53.150;18.172;2023-07-08T13:29:38;5.90;;;3.40;;
77449;SDS011;66536;53.150;18.172;2023-07-08T13:32:05;4.10;;;3.50;;
77449;SDS011;66536;53.150;18.172;2023-07-08T13:34:32;3.70;;;3.40;;
77449;SDS011;66536;53.150;18.172;2023-07-08T13:36:59;4.50;;;2.90;;
77449;SDS011;66536;53.150;18.172;2023-07-08T13:39:26;3.90;;;3.20;;
77449;SDS011;66536;53.150;18.172;2023-07-08T13:41:55;3.30;;;3.00;;
77449;SDS011;66536;53.150;18.172;2023-07-08T13:44:21;3.80;;;3.00;;
77449;SDS011;66536;53.150;18.172;2023-07-08T13:46:52;5.50;;;3.30;;
77449;SDS011;66536;53.150;18.172;2023-07-08T13:49:24;4.30;;;3.50;;
77449;SDS011;66536;53.150;18.172;2023-07-08T13:54:46;16.80;;;3.80;;
77449;SDS011;66536;53.150;18.172;2023-07-08T13:57:17;5.70;;;3.50;;
77449;SDS011;66536;53.150;18.172;2023-07-08T13:59:45;3.60;;;3.30;;
77449;SDS011;66536;53.150;18.172;2023-07-08T14:02:14;9.70;;;3.60;;
77449;SDS011;66536;53.150;18.172;2023-07-08T14:04:45;4.20;;;3.50;;
77449;SDS011;66536;53.150;18.172;2023-07-08T14:07:13;3.90;;;3.40;;
77449;SDS011;66536;53.150;18.172;2023-07-08T14:09:43;5.20;;;3.30;;
77449;SDS011;66536;53.150;18.172;2023-07-08T14:12:10;4.20;;;3.10;;
77449;SDS011;66536;53.150;18.172;2023-07-08T14:14:36;4.20;;;3.30;;
77449;SDS011;66536;53.150;18.172;2023-07-08T14:17:02;4.10;;;3.50;;
77449;SDS011;66536;53.150;18.172;2023-07-08T14:19:29;8.00;;;3.40;;
77449;SDS011;66536;53.150;18.172;2023-07-08T14:21:58;5.60;;;3.70;;
77449;SDS011;66536;53.150;18.172;2023-07-08T14:24:26;5.00;;;3.90;;
77449;SDS011;66536;53.150;18.172;2023-07-08T14:26:53;7.80;;;3.80;;
77449;SDS011;66536;53.150;18.172;2023-07-08T14:29:20;5.00;;;3.50;;
77449;SDS011;66536;53.150;18.172;2023-07-08T14:31:46;4.10;;;3.70;;
77449;SDS011;66536;53.150;18.172;2023-07-08T14:34:16;5.50;;;4.10;;
77449;SDS011;66536;53.150;18.172;2023-07-08T14:36:47;4.40;;;3.90;;
77449;SDS011;66536;53.150;18.172;2023-07-08T14:39:14;5.00;;;4.40;;
77449;SDS011;66536;53.150;18.172;2023-07-08T14:41:42;5.90;;;3.90;;
77449;SDS011;66536;53.150;18.172;2023-07-08T14:44:18;5.30;;;4.10;;
77449;SDS011;66536;53.150;18.172;2023-07-08T14:46:51;4.70;;;4.40;;
77449;SDS011;66536;53.150;18.172;2023-07-08T14:49:18;5.30;;;4.90;;
77449;SDS011;66536;53.150;18.172;2023-07-08T14:51:47;4.60;;;4.20;;
77449;SDS011;66536;53.150;18.172;2023-07-08T14:54:13;5.40;;;5.00;;
77449;SDS011;66536;53.150;18.172;2023-07-08T14:56:41;5.10;;;4.60;;
77449;SDS011;66536;53.150;18.172;2023-07-08T14:59:28;5.50;;;5.10;;
77449;SDS011;66536;53.150;18.172;2023-07-08T15:01:57;7.10;;;5.60;;
77449;SDS011;66536;53.150;18.172;2023-07-08T15:04:25;5.60;;;5.20;;
77449;SDS011;66536;53.150;18.172;2023-07-08T15:06:51;5.20;;;4.80;;
77449;SDS011;66536;53.150;18.172;2023-07-08T15:09:20;6.80;;;5.90;;
77449;SDS011;66536;53.150;18.172;2023-07-08T15:11:46;6.10;;;5.60;;
77449;SDS011;66536;53.150;18.172;2023-07-08T15:16:50;7.10;;;5.70;;
77449;SDS011;66536;53.150;18.172;2023-07-08T15:19:20;6.60;;;6.00;;
77449;SDS011;66536;53.150;18.172;2023-07-08T15:21:47;5.60;;;5.10;;
77449;SDS011;66536;53.150;18.172;2023-07-08T15:24:13;7.00;;;6.40;;
77449;SDS011;66536;53.150;18.172;2023-07-08T15:26:41;6.70;;;6.10;;
77449;SDS011;66536;53.150;18.172;2023-07-08T15:29:12;7.10;;;6.50;;
77449;SDS011;66536;53.150;18.172;2023-07-08T15:31:59;6.20;;;5.80;;
77449;SDS011;66536;53.150;18.172;2023-07-08T15:34:25;6.90;;;6.40;;
77449;SDS011;66536;53.150;18.172;2023-07-08T15:36:51;7.00;;;6.40;;